Time;durP1;ratioP1;P1;durP2;ratioP2;P2;SDS_P1;SDS_P2;PMS_P1;PMS_P2;Temp;Humidity;BMP_temperature;BMP_pressure;BME280_temperature;BME280_humidity;BME280_pressure;Samples;Min_cycle;Max_cycle;Signal;HPM_P1;HPM_P2
2023/09/14 00:01:32;;;;;;;9.00;7.10;;;;;;;-128.00;-1.00;-1.00;105704;1251;1004272;-81
2023/09/14 00:03:58;;;;;;;9.20;7.30;;;;;;;-128.00;-1.00;-1.00;105737;1251;1004753;-81
2023/09/14 00:06:25;;;;;;;10.40;7.60;;;;;;;-128.00;-1.00;-1.00;105583;1251;1004604;-81
2023/09/14 00:08:51;;;;;;;9.20;7.60;;;;;;;-128.00;-1.00;-1.00;105608;1251;1004158;-81
2023/09/14 00:11:19;;;;;;;10.50;7.70;;;;;;;-128.00;-1.00;-1.00;105635;1251;1003919;-81
2023/09/14 00:13:46;;;;;;;7.50;6.70;;;;;;;-128.00;-1.00;-1.00;105672;1251;1004305;-81
2023/09/14 00:16:13;;;;;;;13.30;7.90;;;;;;;-128.00;-1.00;-1.00;105668;1251;1003555;-80
2023/09/14 00:18:39;;;;;;;10.80;6.70;;;;;;;-128.00;-1.00;-1.00;105679;1251;1004949;-81
2023/09/14 00:21:06;;;;;;;8.00;7.00;;;;;;;-128.00;-1.00;-1.00;105602;1251;1004407;-80
2023/09/14 00:23:32;;;;;;;12.50;8.20;;;;;;;-128.00;-1.00;-1.00;105612;1251;1004038;-80
2023/09/14 00:25:59;;;;;;;17.10;8.50;;;;;;;-128.00;-1.00;-1.00;105586;1251;1004145;-81
2023/09/14 00:28:26;;;;;;;13.50;9.20;;;;;;;-128.00;-1.00;-1.00;105611;1251;1004235;-81
2023/09/14 00:30:52;;;;;;;21.00;9.90;;;;;;;-128.00;-1.00;-1.00;105477;1251;1005246;-81
2023/09/14 00:33:20;;;;;;;10.40;9.30;;;;;;;-128.00;-1.00;-1.00;105576;1251;1004440;-81
2023/09/14 00:35:46;;;;;;;11.30;8.10;;;;;;;-128.00;-1.00;-1.00;105644;1251;1004588;-81
2023/09/14 00:38:13;;;;;;;11.10;8.60;;;;;;;-128.00;-1.00;-1.00;105595;1251;1004203;-81
2023/09/14 00:40:40;;;;;;;10.10;7.60;;;;;;;-128.00;-1.00;-1.00;105611;1251;1004208;-81
2023/09/14 00:43:06;;;;;;;10.30;6.90;;;;;;;-128.00;-1.00;-1.00;105610;1251;1005234;-81
2023/09/14 00:45:33;;;;;;;9.10;7.90;;;;;;;-128.00;-1.00;-1.00;105578;1251;1004300;-81
2023/09/14 00:47:59;;;;;;;8.60;7.60;;;;;;;-128.00;-1.00;-1.00;105541;1254;1004913;-81
2023/09/14 00:50:26;;;;;;;11.20;7.90;;;;;;;-128.00;-1.00;-1.00;105544;1250;1004620;-81
2023/09/14 00:52:56;;;;;;;12.60;8.20;;;;;;;-128.00;-1.00;-1.00;105692;1251;1004192;-81
2023/09/14 00:55:22;;;;;;;13.60;9.60;;;;;;;-128.00;-1.00;-1.00;105684;1250;1059263;-81
2023/09/14 00:57:51;;;;;;;11.60;8.80;;;;;;;-128.00;-1.00;-1.00;105696;1251;1004525;-81
2023/09/14 01:00:18;;;;;;;9.20;8.00;;;;;;;-128.00;-1.00;-1.00;105733;1250;1047298;-81
2023/09/14 01:02:44;;;;;;;11.80;8.50;;;;;;;-128.00;-1.00;-1.00;105719;1250;1004073;-81
2023/09/14 01:05:12;;;;;;;12.10;8.30;;;;;;;-128.00;-1.00;-1.00;105551;1253;1004991;-81
2023/09/14 01:07:40;;;;;;;11.00;8.80;;;;;;;-128.00;-1.00;-1.00;105603;1251;1058458;-81
2023/09/14 01:10:09;;;;;;;14.60;8.60;;;;;;;-128.00;-1.00;-1.00;105456;1251;1003778;-81
2023/09/14 01:12:36;;;;;;;11.80;8.30;;;;;;;-128.00;-1.00;-1.00;105508;1251;1047018;-81
2023/09/14 01:15:11;;;;;;;17.50;9.60;;;;;;;-128.00;-1.00;-1.00;105419;1251;1005013;-81
2023/09/14 01:17:47;;;;;;;15.10;8.20;;;;;;;-128.00;-1.00;-1.00;105689;1251;1057774;-81
2023/09/14 01:20:25;;;;;;;10.50;8.60;;;;;;;-128.00;-1.00;-1.00;105636;1251;1060386;-81
2023/09/14 01:23:17;;;;;;;12.50;9.00;;;;;;;-128.00;-1.00;-1.00;105571;1251;1046579;-81
2023/09/14 01:25:46;;;;;;;11.00;8.40;;;;;;;-128.00;-1.00;-1.00;105620;1251;1048131;-81
2023/09/14 01:28:13;;;;;;;10.90;8.40;;;;;;;-128.00;-1.00;-1.00;105603;1251;1062896;-81
2023/09/14 01:30:41;;;;;;;15.80;10.90;;;;;;;-128.00;-1.00;-1.00;105531;1251;1004062;-81
2023/09/14 01:33:09;;;;;;;11.70;8.40;;;;;;;-128.00;-1.00;-1.00;105593;1251;1059848;-81
2023/09/14 01:35:50;;;;;;;12.60;8.40;;;;;;;-128.00;-1.00;-1.00;105498;1250;1004897;-81
2023/09/14 01:38:16;;;;;;;15.70;10.20;;;;;;;-128.00;-1.00;-1.00;105588;1251;1046939;-81
2023/09/14 01:40:43;;;;;;;10.10;8.30;;;;;;;-128.00;-1.00;-1.00;105641;1250;1004893;-81
2023/09/14 01:43:11;;;;;;;13.80;9.90;;;;;;;-128.00;-1.00;-1.00;105443;1251;1004538;-81
2023/09/14 01:45:38;;;;;;;16.90;12.20;;;;;;;-128.00;-1.00;-1.00;105628;1251;1004503;-81
2023/09/14 01:48:04;;;;;;;13.50;10.10;;;;;;;-128.00;-1.00;-1.00;105532;1251;1005081;-81
2023/09/14 01:50:31;;;;;;;11.70;9.40;;;;;;;-128.00;-1.00;-1.00;105685;1249;1004387;-81
2023/09/14 01:52:57;;;;;;;11.50;8.90;;;;;;;-128.00;-1.00;-1.00;105730;1250;1005359;-80
2023/09/14 01:55:24;;;;;;;14.00;8.50;;;;;;;-128.00;-1.00;-1.00;105716;1250;1003771;-81
2023/09/14 01:57:51;;;;;;;10.80;7.80;;;;;;;-128.00;-1.00;-1.00;105438;1250;1004520;-81
2023/09/14 02:00:17;;;;;;;12.70;10.20;;;;;;;-128.00;-1.00;-1.00;105707;1250;1004443;-81
2023/09/14 02:02:44;;;;;;;11.60;10.10;;;;;;;-128.00;-1.00;-1.00;105767;1250;1003460;-81
2023/09/14 02:05:10;;;;;;;10.20;8.90;;;;;;;-128.00;-1.00;-1.00;105655;1251;1003946;-81
2023/09/14 02:07:36;;;;;;;13.70;10.40;;;;;;;-128.00;-1.00;-1.00;105648;1251;1004285;-81
2023/09/14 02:10:03;;;;;;;11.10;9.50;;;;;;;-128.00;-1.00;-1.00;105640;1251;1005082;-81
2023/09/14 02:12:30;;;;;;;10.50;9.10;;;;;;;-128.00;-1.00;-1.00;105603;1251;1004946;-81
2023/09/14 02:14:57;;;;;;;12.50;9.80;;;;;;;-128.00;-1.00;-1.00;105564;1251;1004137;-81
2023/09/14 02:17:24;;;;;;;10.80;9.70;;;;;;;-128.00;-1.00;-1.00;105618;1250;1004252;-81
2023/09/14 02:19:50;;;;;;;11.60;9.70;;;;;;;-128.00;-1.00;-1.00;105636;1250;1003788;-81
2023/09/14 02:22:17;;;;;;;10.50;8.80;;;;;;;-128.00;-1.00;-1.00;105629;1250;1004388;-81
2023/09/14 02:24:43;;;;;;;10.00;8.90;;;;;;;-128.00;-1.00;-1.00;105604;1250;1004440;-81
2023/09/14 02:27:11;;;;;;;12.70;9.70;;;;;;;-128.00;-1.00;-1.00;105553;1251;1004279;-81
2023/09/14 02:29:38;;;;;;;11.60;9.80;;;;;;;-128.00;-1.00;-1.00;105593;1250;1003615;-81
2023/09/14 02:32:05;;;;;;;12.50;9.20;;;;;;;-128.00;-1.00;-1.00;105653;1251;1004694;-81
2023/09/14 02:34:32;;;;;;;10.60;9.20;;;;;;;-128.00;-1.00;-1.00;105621;1250;1004838;-81
2023/09/14 02:36:58;;;;;;;13.70;9.70;;;;;;;-128.00;-1.00;-1.00;105604;1250;1005079;-81
2023/09/14 02:39:24;;;;;;;14.80;10.50;;;;;;;-128.00;-1.00;-1.00;105647;1251;1004865;-81
2023/09/14 02:41:51;;;;;;;15.20;9.90;;;;;;;-128.00;-1.00;-1.00;105622;1251;1004469;-81
2023/09/14 02:44:17;;;;;;;13.80;9.00;;;;;;;-128.00;-1.00;-1.00;105599;1251;1004170;-81
2023/09/14 02:46:44;;;;;;;14.90;10.60;;;;;;;-128.00;-1.00;-1.00;105509;1251;1005437;-81
2023/09/14 02:49:10;;;;;;;12.30;9.70;;;;;;;-128.00;-1.00;-1.00;105652;1250;1004401;-81
2023/09/14 02:51:37;;;;;;;14.90;10.70;;;;;;;-128.00;-1.00;-1.00;105622;1250;1003634;-81
2023/09/14 02:54:03;;;;;;;13.10;10.50;;;;;;;-128.00;-1.00;-1.00;105642;1250;1003670;-81
2023/09/14 02:56:30;;;;;;;12.00;10.20;;;;;;;-128.00;-1.00;-1.00;105657;1250;1005285;-80
2023/09/14 02:58:57;;;;;;;13.20;9.90;;;;;;;-128.00;-1.00;-1.00;105588;1250;1003634;-81
2023/09/14 03:01:23;;;;;;;11.70;10.20;;;;;;;-128.00;-1.00;-1.00;105659;1253;1004846;-81
2023/09/14 03:03:50;;;;;;;11.90;9.30;;;;;;;-128.00;-1.00;-1.00;105504;1251;1004144;-81
2023/09/14 03:06:16;;;;;;;11.10;9.50;;;;;;;-128.00;-1.00;-1.00;105588;1251;1004506;-80
2023/09/14 03:08:43;;;;;;;11.40;9.50;;;;;;;-128.00;-1.00;-1.00;105644;1251;1004543;-80
2023/09/14 03:11:10;;;;;;;12.50;10.40;;;;;;;-128.00;-1.00;-1.00;105598;1250;1004588;-81
2023/09/14 03:13:36;;;;;;;17.40;10.80;;;;;;;-128.00;-1.00;-1.00;105600;1251;1004934;-80
2023/09/14 03:16:03;;;;;;;16.30;12.00;;;;;;;-128.00;-1.00;-1.00;105638;1250;1004750;-81
2023/09/14 03:18:31;;;;;;;13.70;10.50;;;;;;;-128.00;-1.00;-1.00;105538;1251;1004977;-81
2023/09/14 03:20:57;;;;;;;14.10;10.60;;;;;;;-128.00;-1.00;-1.00;105593;1251;1004504;-81
2023/09/14 03:23:23;;;;;;;11.80;10.00;;;;;;;-128.00;-1.00;-1.00;105638;1250;1003602;-81
2023/09/14 03:25:50;;;;;;;14.10;9.80;;;;;;;-128.00;-1.00;-1.00;105608;1250;1004131;-81
2023/09/14 03:28:17;;;;;;;14.20;10.00;;;;;;;-128.00;-1.00;-1.00;105444;1251;1004741;-80
2023/09/14 03:30:44;;;;;;;12.90;10.00;;;;;;;-128.00;-1.00;-1.00;105606;1251;1003929;-81
2023/09/14 03:33:11;;;;;;;14.60;9.90;;;;;;;-128.00;-1.00;-1.00;105620;1251;1004978;-81
2023/09/14 03:35:37;;;;;;;14.70;11.20;;;;;;;-128.00;-1.00;-1.00;105598;1251;1003524;-81
2023/09/14 03:38:04;;;;;;;16.30;10.70;;;;;;;-128.00;-1.00;-1.00;105417;1251;1003828;-81
2023/09/14 03:40:30;;;;;;;14.40;9.90;;;;;;;-128.00;-1.00;-1.00;105636;1250;1004500;-81
2023/09/14 03:42:57;;;;;;;16.00;11.00;;;;;;;-128.00;-1.00;-1.00;105610;1250;1004087;-81
2023/09/14 03:45:23;;;;;;;15.80;11.50;;;;;;;-128.00;-1.00;-1.00;105627;1250;1003697;-81
2023/09/14 03:47:51;;;;;;;13.10;10.20;;;;;;;-128.00;-1.00;-1.00;105624;1251;1003799;-81
2023/09/14 03:50:18;;;;;;;15.80;10.70;;;;;;;-128.00;-1.00;-1.00;105676;1251;1004040;-80
2023/09/14 03:52:44;;;;;;;15.80;10.60;;;;;;;-128.00;-1.00;-1.00;105711;1250;1004223;-81
2023/09/14 03:55:11;;;;;;;16.00;10.80;;;;;;;-128.00;-1.00;-1.00;105720;1250;1004944;-81
2023/09/14 03:57:38;;;;;;;14.70;11.00;;;;;;;-128.00;-1.00;-1.00;105725;1250;1005183;-81
2023/09/14 04:00:11;;;;;;;12.60;10.60;;;;;;;-128.00;-1.00;-1.00;105509;1250;1004097;-81
2023/09/14 04:02:37;;;;;;;15.60;10.30;;;;;;;-128.00;-1.00;-1.00;105465;1253;1046869;-81
2023/09/14 04:05:13;;;;;;;17.40;11.00;;;;;;;-128.00;-1.00;-1.00;105505;1253;1003977;-81
2023/09/14 04:07:40;;;;;;;15.20;12.50;;;;;;;-128.00;-1.00;-1.00;105389;1253;1061314;-81
2023/09/14 04:10:10;;;;;;;12.70;11.10;;;;;;;-128.00;-1.00;-1.00;105571;1251;1004191;-81
2023/09/14 04:12:38;;;;;;;14.70;12.90;;;;;;;-128.00;-1.00;-1.00;105552;1253;1058872;-81
2023/09/14 04:15:05;;;;;;;13.40;10.50;;;;;;;-128.00;-1.00;-1.00;105586;1253;1004166;-81
2023/09/14 04:17:31;;;;;;;19.40;11.70;;;;;;;-128.00;-1.00;-1.00;105577;1252;1003994;-81
2023/09/14 04:19:58;;;;;;;16.50;12.10;;;;;;;-128.00;-1.00;-1.00;105509;1253;1004925;-81
2023/09/14 04:22:26;;;;;;;17.80;13.10;;;;;;;-128.00;-1.00;-1.00;105430;1254;1004563;-81
2023/09/14 04:24:52;;;;;;;18.40;12.30;;;;;;;-128.00;-1.00;-1.00;105561;1253;1004012;-82
2023/09/14 04:27:19;;;;;;;16.70;12.80;;;;;;;-128.00;-1.00;-1.00;105548;1252;1005219;-81
2023/09/14 04:29:45;;;;;;;13.10;11.40;;;;;;;-128.00;-1.00;-1.00;105557;1253;1004526;-81
2023/09/14 04:32:12;;;;;;;14.50;11.40;;;;;;;-128.00;-1.00;-1.00;105410;1254;1003899;-80
2023/09/14 04:34:38;;;;;;;13.20;10.10;;;;;;;-128.00;-1.00;-1.00;105548;1253;1004825;-81
2023/09/14 04:37:05;;;;;;;14.20;11.00;;;;;;;-128.00;-1.00;-1.00;105566;1252;1004076;-80
2023/09/14 04:39:31;;;;;;;12.20;10.10;;;;;;;-128.00;-1.00;-1.00;105564;1252;1004368;-80
2023/09/14 04:41:57;;;;;;;16.10;11.70;;;;;;;-128.00;-1.00;-1.00;105586;1252;1004636;-81
2023/09/14 04:44:24;;;;;;;27.00;16.20;;;;;;;-128.00;-1.00;-1.00;105542;1252;1004683;-81
2023/09/14 04:46:50;;;;;;;24.90;15.80;;;;;;;-128.00;-1.00;-1.00;105521;1253;1003774;-81
2023/09/14 04:49:17;;;;;;;19.10;12.40;;;;;;;-128.00;-1.00;-1.00;105585;1252;1004760;-80
2023/09/14 04:51:43;;;;;;;27.60;15.40;;;;;;;-128.00;-1.00;-1.00;105534;1252;1004523;-81
2023/09/14 04:54:09;;;;;;;24.40;15.20;;;;;;;-128.00;-1.00;-1.00;105464;1253;1003916;-81
2023/09/14 04:56:36;;;;;;;26.50;14.50;;;;;;;-128.00;-1.00;-1.00;105537;1252;1003887;-80
2023/09/14 04:59:04;;;;;;;26.30;16.50;;;;;;;-128.00;-1.00;-1.00;105621;1252;1004382;-81
2023/09/14 05:01:30;;;;;;;30.70;17.70;;;;;;;-128.00;-1.00;-1.00;105357;1253;1046940;-80
2023/09/14 05:03:57;;;;;;;27.60;15.70;;;;;;;-128.00;-1.00;-1.00;105387;1252;1004017;-81
2023/09/14 05:06:24;;;;;;;33.90;19.30;;;;;;;-128.00;-1.00;-1.00;105493;1253;1003850;-80
2023/09/14 05:08:50;;;;;;;35.30;20.40;;;;;;;-128.00;-1.00;-1.00;105524;1252;1003657;-80
2023/09/14 05:11:17;;;;;;;33.50;17.90;;;;;;;-128.00;-1.00;-1.00;105465;1253;1004541;-80
2023/09/14 05:13:43;;;;;;;19.00;12.60;;;;;;;-128.00;-1.00;-1.00;105419;1253;1005004;-81
2023/09/14 05:16:09;;;;;;;17.60;11.90;;;;;;;-128.00;-1.00;-1.00;105444;1253;1004342;-80
2023/09/14 05:18:36;;;;;;;19.40;11.80;;;;;;;-128.00;-1.00;-1.00;105496;1253;1004031;-81
2023/09/14 05:21:02;;;;;;;15.80;10.00;;;;;;;-128.00;-1.00;-1.00;105487;1253;1004246;-80
2023/09/14 05:23:29;;;;;;;8.60;6.70;;;;;;;-128.00;-1.00;-1.00;105518;1252;1004484;-80
2023/09/14 05:25:55;;;;;;;15.80;9.10;;;;;;;-128.00;-1.00;-1.00;105516;1252;1003447;-81
2023/09/14 05:28:22;;;;;;;12.80;8.00;;;;;;;-128.00;-1.00;-1.00;105493;1253;1004348;-81
2023/09/14 05:30:50;;;;;;;8.40;6.30;;;;;;;-128.00;-1.00;-1.00;105356;1253;1004469;-81
2023/09/14 05:33:18;;;;;;;58.20;48.10;;;;;;;-128.00;-1.00;-1.00;105495;1253;1003945;-81
2023/09/14 05:35:44;;;;;;;68.90;45.40;;;;;;;-128.00;-1.00;-1.00;105466;1254;1004501;-80
2023/09/14 05:38:11;;;;;;;11.10;9.70;;;;;;;-128.00;-1.00;-1.00;105554;1253;1004794;-82
2023/09/14 05:40:37;;;;;;;9.40;5.50;;;;;;;-128.00;-1.00;-1.00;105469;1252;1004714;-81
2023/09/14 05:43:04;;;;;;;7.10;4.90;;;;;;;-128.00;-1.00;-1.00;105558;1253;1003373;-81
2023/09/14 05:45:30;;;;;;;14.10;7.10;;;;;;;-128.00;-1.00;-1.00;105500;1254;1004345;-80
2023/09/14 05:47:57;;;;;;;14.10;8.10;;;;;;;-128.00;-1.00;-1.00;105512;1252;1005124;-81
2023/09/14 05:50:23;;;;;;;20.40;10.20;;;;;;;-128.00;-1.00;-1.00;105448;1253;1004660;-80
2023/09/14 05:52:50;;;;;;;19.80;10.30;;;;;;;-128.00;-1.00;-1.00;105480;1252;1003897;-80
2023/09/14 05:55:17;;;;;;;20.30;10.00;;;;;;;-128.00;-1.00;-1.00;105509;1253;1004430;-81
2023/09/14 05:57:43;;;;;;;18.70;11.10;;;;;;;-128.00;-1.00;-1.00;105483;1255;1004291;-81
2023/09/14 06:00:13;;;;;;;26.00;11.70;;;;;;;-128.00;-1.00;-1.00;105473;1252;1004386;-81
2023/09/14 06:02:40;;;;;;;23.10;11.40;;;;;;;-128.00;-1.00;-1.00;105565;1251;1046955;-81
2023/09/14 06:05:07;;;;;;;10.80;7.20;;;;;;;-128.00;-1.00;-1.00;105567;1250;1004723;-81
2023/09/14 06:07:33;;;;;;;14.00;8.50;;;;;;;-128.00;-1.00;-1.00;105504;1250;1004706;-80
2023/09/14 06:10:00;;;;;;;13.80;8.60;;;;;;;-128.00;-1.00;-1.00;105548;1254;1003750;-80
2023/09/14 06:12:29;;;;;;;18.00;11.00;;;;;;;-128.00;-1.00;-1.00;105575;1250;1004360;-82
2023/09/14 06:14:57;;;;;;;17.20;9.80;;;;;;;-128.00;-1.00;-1.00;105416;1251;1046921;-81
2023/09/14 06:17:23;;;;;;;16.80;11.60;;;;;;;-128.00;-1.00;-1.00;105521;1250;1004878;-81
2023/09/14 06:19:49;;;;;;;15.30;11.10;;;;;;;-128.00;-1.00;-1.00;105575;1250;1004193;-81
2023/09/14 06:22:16;;;;;;;12.50;9.00;;;;;;;-128.00;-1.00;-1.00;105545;1250;1004033;-81
2023/09/14 06:24:42;;;;;;;10.60;8.00;;;;;;;-128.00;-1.00;-1.00;105414;1253;1004178;-81
2023/09/14 06:27:09;;;;;;;13.60;8.10;;;;;;;-128.00;-1.00;-1.00;105562;1251;1003337;-81
2023/09/14 06:29:36;;;;;;;9.00;7.10;;;;;;;-128.00;-1.00;-1.00;105470;1251;1004314;-81
2023/09/14 06:32:03;;;;;;;9.90;7.80;;;;;;;-128.00;-1.00;-1.00;105407;1251;1004069;-81
2023/09/14 06:34:29;;;;;;;11.30;7.70;;;;;;;-128.00;-1.00;-1.00;105386;1251;1004759;-81
2023/09/14 06:36:56;;;;;;;11.50;8.60;;;;;;;-128.00;-1.00;-1.00;105562;1250;1004044;-81
2023/09/14 06:39:22;;;;;;;12.50;9.40;;;;;;;-128.00;-1.00;-1.00;105531;1251;1004078;-81
2023/09/14 06:41:49;;;;;;;19.10;11.20;;;;;;;-128.00;-1.00;-1.00;105564;1251;1004458;-81
2023/09/14 06:44:18;;;;;;;19.90;13.40;;;;;;;-128.00;-1.00;-1.00;105569;1251;1005106;-81
2023/09/14 06:46:46;;;;;;;17.20;13.10;;;;;;;-128.00;-1.00;-1.00;105550;1250;1058712;-81
2023/09/14 06:49:13;;;;;;;18.50;13.50;;;;;;;-128.00;-1.00;-1.00;105481;1251;1003863;-81
2023/09/14 06:51:41;;;;;;;23.20;15.30;;;;;;;-128.00;-1.00;-1.00;105525;1251;1003875;-80
2023/09/14 06:54:08;;;;;;;22.40;16.70;;;;;;;-128.00;-1.00;-1.00;105563;1250;1004461;-80
2023/09/14 06:56:34;;;;;;;19.20;15.30;;;;;;;-128.00;-1.00;-1.00;105391;1251;1004122;-81
2023/09/14 06:59:01;;;;;;;20.80;15.30;;;;;;;-128.00;-1.00;-1.00;105543;1250;1004459;-80
2023/09/14 07:01:28;;;;;;;24.80;18.40;;;;;;;-128.00;-1.00;-1.00;105508;1251;1004716;-80
2023/09/14 07:03:55;;;;;;;28.30;21.60;;;;;;;-128.00;-1.00;-1.00;105558;1251;1004832;-81
2023/09/14 07:06:21;;;;;;;25.30;19.70;;;;;;;-128.00;-1.00;-1.00;105563;1251;1004659;-81
2023/09/14 07:08:48;;;;;;;26.70;19.10;;;;;;;-128.00;-1.00;-1.00;105452;1251;1004902;-81
2023/09/14 07:11:15;;;;;;;21.30;17.30;;;;;;;-128.00;-1.00;-1.00;105473;1251;1004595;-81
2023/09/14 07:13:41;;;;;;;24.20;18.10;;;;;;;-128.00;-1.00;-1.00;105497;1252;1004165;-81
2023/09/14 07:16:08;;;;;;;18.40;15.00;;;;;;;-128.00;-1.00;-1.00;105588;1249;1004241;-81
2023/09/14 07:18:35;;;;;;;20.30;15.10;;;;;;;-128.00;-1.00;-1.00;105582;1250;1006236;-82
2023/09/14 07:21:02;;;;;;;19.00;15.70;;;;;;;-128.00;-1.00;-1.00;105540;1251;1004789;-81
2023/09/14 07:23:30;;;;;;;17.80;14.60;;;;;;;-128.00;-1.00;-1.00;105538;1251;1004149;-81
2023/09/14 07:25:56;;;;;;;19.00;14.60;;;;;;;-128.00;-1.00;-1.00;105538;1251;1005007;-81
2023/09/14 07:28:23;;;;;;;19.70;13.50;;;;;;;-128.00;-1.00;-1.00;105560;1250;1004378;-80
2023/09/14 07:30:50;;;;;;;21.00;13.40;;;;;;;-128.00;-1.00;-1.00;105535;1253;1004235;-81
2023/09/14 07:33:17;;;;;;;16.60;13.20;;;;;;;-128.00;-1.00;-1.00;105609;1250;1004813;-81
2023/09/14 07:35:45;;;;;;;18.10;14.10;;;;;;;-128.00;-1.00;-1.00;105553;1250;1004519;-81
2023/09/14 07:38:14;;;;;;;18.90;12.70;;;;;;;-128.00;-1.00;-1.00;105507;1251;1004364;-81
2023/09/14 07:40:41;;;;;;;18.00;13.70;;;;;;;-128.00;-1.00;-1.00;105521;1251;1046185;-81
2023/09/14 07:43:08;;;;;;;16.60;12.30;;;;;;;-128.00;-1.00;-1.00;105532;1251;1004781;-81
2023/09/14 07:45:34;;;;;;;14.50;11.40;;;;;;;-128.00;-1.00;-1.00;105518;1251;1004535;-81
2023/09/14 07:48:03;;;;;;;16.30;11.00;;;;;;;-128.00;-1.00;-1.00;105698;1250;1004653;-81
2023/09/14 07:50:29;;;;;;;11.90;10.20;;;;;;;-128.00;-1.00;-1.00;105593;1251;1059479;-81
2023/09/14 07:52:56;;;;;;;14.50;10.00;;;;;;;-128.00;-1.00;-1.00;105576;1251;1004392;-81
2023/09/14 07:55:23;;;;;;;11.20;9.40;;;;;;;-128.00;-1.00;-1.00;105485;1251;1004073;-81
2023/09/14 07:57:49;;;;;;;11.20;8.90;;;;;;;-128.00;-1.00;-1.00;105608;1251;1004173;-81
2023/09/14 08:00:16;;;;;;;10.60;9.00;;;;;;;-128.00;-1.00;-1.00;105642;1251;1004120;-81
2023/09/14 08:02:45;;;;;;;10.80;8.80;;;;;;;-128.00;-1.00;-1.00;105570;1250;1004526;-81
2023/09/14 08:05:11;;;;;;;9.40;7.70;;;;;;;-128.00;-1.00;-1.00;105663;1251;1004422;-80
2023/09/14 08:07:37;;;;;;;11.90;7.80;;;;;;;-128.00;-1.00;-1.00;105574;1251;1003583;-81
2023/09/14 08:10:05;;;;;;;9.50;7.90;;;;;;;-128.00;-1.00;-1.00;105515;1250;1004774;-80
2023/09/14 08:12:31;;;;;;;10.20;8.10;;;;;;;-128.00;-1.00;-1.00;105551;1251;1004288;-80
2023/09/14 08:14:58;;;;;;;8.20;7.10;;;;;;;-128.00;-1.00;-1.00;105573;1251;1004687;-81
2023/09/14 08:17:24;;;;;;;8.50;7.10;;;;;;;-128.00;-1.00;-1.00;105562;1251;1004559;-80
2023/09/14 08:19:50;;;;;;;9.60;6.90;;;;;;;-128.00;-1.00;-1.00;105551;1253;1004235;-81
2023/09/14 08:22:22;;;;;;;7.70;6.90;;;;;;;-128.00;-1.00;-1.00;105593;1251;1005003;-80
2023/09/14 08:24:50;;;;;;;8.70;7.70;;;;;;;-128.00;-1.00;-1.00;105511;1250;1058424;-81
2023/09/14 08:27:16;;;;;;;8.90;6.40;;;;;;;-128.00;-1.00;-1.00;105541;1251;1004950;-81
2023/09/14 08:29:45;;;;;;;10.10;7.10;;;;;;;-128.00;-1.00;-1.00;105591;1250;1004057;-81
2023/09/14 08:32:12;;;;;;;13.20;7.10;;;;;;;-128.00;-1.00;-1.00;105586;1251;1046964;-81
2023/09/14 08:34:38;;;;;;;14.60;8.90;;;;;;;-128.00;-1.00;-1.00;105502;1251;1004695;-81
2023/09/14 08:37:09;;;;;;;11.80;7.10;;;;;;;-128.00;-1.00;-1.00;105583;1251;1005338;-81
2023/09/14 08:39:36;;;;;;;9.40;7.60;;;;;;;-128.00;-1.00;-1.00;105454;1251;1060964;-81
2023/09/14 08:42:02;;;;;;;10.80;9.40;;;;;;;-128.00;-1.00;-1.00;105436;1251;1004769;-81
2023/09/14 08:44:32;;;;;;;11.80;8.30;;;;;;;-128.00;-1.00;-1.00;105522;1251;1005149;-81
2023/09/14 08:47:00;;;;;;;13.40;10.10;;;;;;;-128.00;-1.00;-1.00;105575;1255;1062300;-81
2023/09/14 08:49:28;;;;;;;14.70;9.80;;;;;;;-128.00;-1.00;-1.00;105509;1251;1004331;-81
2023/09/14 08:51:58;;;;;;;11.30;9.20;;;;;;;-128.00;-1.00;-1.00;105464;1251;1004055;-81
2023/09/14 08:54:25;;;;;;;13.60;10.80;;;;;;;-128.00;-1.00;-1.00;105553;1255;1046388;-81
2023/09/14 08:56:52;;;;;;;12.70;9.70;;;;;;;-128.00;-1.00;-1.00;105481;1251;1003780;-81
2023/09/14 08:59:21;;;;;;;16.50;9.80;;;;;;;-128.00;-1.00;-1.00;105495;1254;1004638;-81
2023/09/14 09:01:48;;;;;;;12.80;8.70;;;;;;;-128.00;-1.00;-1.00;105634;1251;1057982;-81
2023/09/14 09:04:14;;;;;;;11.90;8.50;;;;;;;-128.00;-1.00;-1.00;105503;1251;1005327;-81
2023/09/14 09:06:42;;;;;;;11.60;8.70;;;;;;;-128.00;-1.00;-1.00;105533;1251;1004831;-81
2023/09/14 09:09:13;;;;;;;14.40;8.50;;;;;;;-128.00;-1.00;-1.00;105534;1251;1003757;-82
2023/09/14 09:11:39;;;;;;;10.80;7.70;;;;;;;-128.00;-1.00;-1.00;105560;1251;1061526;-81
2023/09/14 09:14:06;;;;;;;8.40;7.00;;;;;;;-128.00;-1.00;-1.00;105580;1254;1004597;-81
2023/09/14 09:16:32;;;;;;;12.00;7.30;;;;;;;-128.00;-1.00;-1.00;105540;1251;1004980;-81
2023/09/14 09:19:03;;;;;;;15.20;12.30;;;;;;;-128.00;-1.00;-1.00;105504;1251;1004194;-81
2023/09/14 09:21:30;;;;;;;7.80;6.30;;;;;;;-128.00;-1.00;-1.00;105711;1251;1046626;-80
2023/09/14 09:23:57;;;;;;;7.40;5.50;;;;;;;-128.00;-1.00;-1.00;105509;1254;1004340;-81
2023/09/14 09:26:24;;;;;;;9.70;7.20;;;;;;;-128.00;-1.00;-1.00;105503;1252;1004307;-81
2023/09/14 09:28:51;;;;;;;8.30;5.70;;;;;;;-128.00;-1.00;-1.00;105421;1254;1004006;-81
2023/09/14 09:31:18;;;;;;;7.30;5.70;;;;;;;-128.00;-1.00;-1.00;105540;1254;1004825;-82
2023/09/14 09:33:47;;;;;;;6.80;5.40;;;;;;;-128.00;-1.00;-1.00;105441;1251;1003815;-82
2023/09/14 09:36:17;;;;;;;12.00;6.70;;;;;;;-128.00;-1.00;-1.00;105523;1251;1061701;-81
2023/09/14 09:38:45;;;;;;;7.40;5.50;;;;;;;-128.00;-1.00;-1.00;105507;1251;1058268;-81
2023/09/14 09:41:12;;;;;;;11.30;5.40;;;;;;;-128.00;-1.00;-1.00;105471;1251;1004756;-81
2023/09/14 09:43:40;;;;;;;8.50;4.80;;;;;;;-128.00;-1.00;-1.00;105470;1253;1004703;-81
2023/09/14 09:46:15;;;;;;;8.50;5.30;;;;;;;-128.00;-1.00;-1.00;105335;1253;1046625;-81
2023/09/14 09:48:41;;;;;;;6.40;4.80;;;;;;;-128.00;-1.00;-1.00;105560;1251;1062104;-81
2023/09/14 09:51:08;;;;;;;11.80;5.20;;;;;;;-128.00;-1.00;-1.00;105582;1251;1003618;-81
2023/09/14 09:53:38;;;;;;;9.60;5.40;;;;;;;-128.00;-1.00;-1.00;105574;1251;1004277;-81
2023/09/14 09:56:04;;;;;;;6.20;4.50;;;;;;;-128.00;-1.00;-1.00;105521;1251;1046933;-81
2023/09/14 09:58:35;;;;;;;6.20;4.50;;;;;;;-128.00;-1.00;-1.00;105517;1253;1004816;-81
2023/09/14 10:01:02;;;;;;;9.10;4.60;;;;;;;-128.00;-1.00;-1.00;105585;1253;1063234;-81
2023/09/14 10:03:30;;;;;;;6.40;4.60;;;;;;;-128.00;-1.00;-1.00;105567;1251;1004895;-81
2023/09/14 10:05:56;;;;;;;7.80;4.90;;;;;;;-128.00;-1.00;-1.00;105605;1251;1004674;-82
2023/09/14 10:08:23;;;;;;;8.50;6.20;;;;;;;-128.00;-1.00;-1.00;105575;1251;1004389;-81
2023/09/14 10:10:51;;;;;;;7.00;5.30;;;;;;;-128.00;-1.00;-1.00;105561;1251;1004911;-81
2023/09/14 10:13:22;;;;;;;11.00;9.90;;;;;;;-128.00;-1.00;-1.00;105628;1251;1003809;-81
2023/09/14 10:15:54;;;;;;;8.40;6.60;;;;;;;-128.00;-1.00;-1.00;105577;1250;1058533;-81
2023/09/14 10:18:22;;;;;;;6.40;5.80;;;;;;;-128.00;-1.00;-1.00;105521;1252;1058598;-81
2023/09/14 10:20:52;;;;;;;7.20;4.50;;;;;;;-128.00;-1.00;-1.00;105570;1250;1004192;-81
2023/09/14 10:23:19;;;;;;;5.50;4.50;;;;;;;-128.00;-1.00;-1.00;105598;1251;1047414;-81
2023/09/14 10:25:46;;;;;;;10.00;6.30;;;;;;;-128.00;-1.00;-1.00;105572;1251;1004022;-81
2023/09/14 10:28:14;;;;;;;7.70;6.30;;;;;;;-128.00;-1.00;-1.00;105349;1251;1004580;-81
2023/09/14 10:30:40;;;;;;;6.80;4.80;;;;;;;-128.00;-1.00;-1.00;105547;1251;1004660;-81
2023/09/14 10:33:06;;;;;;;9.30;4.90;;;;;;;-128.00;-1.00;-1.00;105488;1251;1004067;-81
2023/09/14 10:35:33;;;;;;;5.90;4.50;;;;;;;-128.00;-1.00;-1.00;105448;1251;1004397;-81
2023/09/14 10:38:00;;;;;;;7.20;5.30;;;;;;;-128.00;-1.00;-1.00;105562;1251;1004752;-81
2023/09/14 10:40:26;;;;;;;8.30;5.10;;;;;;;-128.00;-1.00;-1.00;105457;1251;1004330;-81
2023/09/14 10:42:52;;;;;;;10.50;5.80;;;;;;;-128.00;-1.00;-1.00;105455;1254;1005578;-81
2023/09/14 10:45:19;;;;;;;6.50;4.80;;;;;;;-128.00;-1.00;-1.00;105502;1253;1004281;-81
2023/09/14 10:47:49;;;;;;;6.40;5.00;;;;;;;-128.00;-1.00;-1.00;105431;1251;1004011;-81
2023/09/14 10:50:15;;;;;;;7.00;5.60;;;;;;;-128.00;-1.00;-1.00;105572;1251;1062200;-81
2023/09/14 10:52:42;;;;;;;9.00;5.40;;;;;;;-128.00;-1.00;-1.00;105571;1255;1004045;-81
2023/09/14 10:55:09;;;;;;;9.00;5.60;;;;;;;-128.00;-1.00;-1.00;105565;1251;1004797;-81
2023/09/14 10:57:39;;;;;;;8.00;5.90;;;;;;;-128.00;-1.00;-1.00;105469;1254;1004871;-80
2023/09/14 11:00:06;;;;;;;8.60;6.70;;;;;;;-128.00;-1.00;-1.00;105538;1253;1047329;-79
2023/09/14 11:02:39;;;;;;;10.60;7.80;;;;;;;-128.00;-1.00;-1.00;105488;1251;1004060;-80
2023/09/14 11:05:13;;;;;;;11.00;7.60;;;;;;;-128.00;-1.00;-1.00;105499;1251;1057890;-82
2023/09/14 11:07:40;;;;;;;13.60;9.30;;;;;;;-128.00;-1.00;-1.00;105577;1251;1059299;-79